createdAt,value
2019-04-30T00:02:09.608Z,13.47
2019-04-30T00:04:42.625Z,13.87
2019-04-30T00:07:15.487Z,13.87
2019-04-30T00:09:44.956Z,13.67
2019-04-30T00:12:13.400Z,14.47
2019-04-30T00:14:41.801Z,13.70
2019-04-30T00:17:10.692Z,13.77
2019-04-30T00:19:40.321Z,14.73
2019-04-30T00:22:08.720Z,14.47
2019-04-30T00:24:39.879Z,14.67
2019-04-30T00:27:07.237Z,15.10
2019-04-30T00:29:35.716Z,15.07
2019-04-30T00:32:07.640Z,15.07
2019-04-30T00:34:35.966Z,15.17
2019-04-30T00:37:07.420Z,16.30
2019-04-30T00:39:35.561Z,14.90
2019-04-30T00:42:05.352Z,15.63
2019-04-30T00:44:35.550Z,16.27
2019-04-30T00:47:08.249Z,16.17
2019-04-30T00:49:35.377Z,17.13
2019-04-30T00:52:05.161Z,16.10
2019-04-30T00:54:35.168Z,17.03
2019-04-30T00:57:07.543Z,17.10
2019-04-30T00:59:35.090Z,15.90
2019-04-30T01:02:06.086Z,16.23
2019-04-30T01:04:36.686Z,16.63
2019-04-30T01:07:08.654Z,15.27
2019-04-30T01:09:39.602Z,16.57
2019-04-30T01:12:07.164Z,16.07
2019-04-30T01:14:35.561Z,17.63
2019-04-30T01:17:08.218Z,15.33
2019-04-30T01:19:34.244Z,16.17
2019-04-30T01:22:02.693Z,16.40
2019-04-30T01:24:33.149Z,16.30
2019-04-30T01:27:06.864Z,16.93
2019-04-30T01:29:41.490Z,17.77
2019-04-30T01:32:04.264Z,17.07
2019-04-30T01:34:32.661Z,17.20
2019-04-30T01:37:01.056Z,18.13
2019-04-30T01:39:31.556Z,18.17
2019-04-30T01:42:02.941Z,18.50
2019-04-30T01:44:29.701Z,17.80
2019-04-30T01:46:58.803Z,18.23
2019-04-30T01:49:30.070Z,17.77
2019-04-30T01:52:00.494Z,18.90
2019-04-30T01:54:29.132Z,19.10
2019-04-30T01:57:16.156Z,18.03
2019-04-30T02:00:02.724Z,19.07
2019-04-30T02:02:35.852Z,18.80
2019-04-30T02:05:08.808Z,20.03
2019-04-30T02:07:38.789Z,18.17
2019-04-30T02:10:09.022Z,19.47
2019-04-30T02:12:39.181Z,19.67
2019-04-30T02:15:09.453Z,19.80
2019-04-30T02:17:38.866Z,19.97
2019-04-30T02:20:09.009Z,19.73
2019-04-30T02:22:38.971Z,20.33
2019-04-30T02:25:09.645Z,20.80
2019-04-30T02:27:39.064Z,21.03
2019-04-30T02:30:11.078Z,21.37
2019-04-30T02:32:39.581Z,20.23
2019-04-30T02:35:11.282Z,20.33
2019-04-30T02:37:59.595Z,21.50
2019-04-30T02:40:30.187Z,21.53
2019-04-30T02:43:01.822Z,21.97
2019-04-30T02:45:30.033Z,20.77
2019-04-30T02:48:02.709Z,20.83
2019-04-30T02:50:34.537Z,20.90
2019-04-30T02:53:06.028Z,20.87
2019-04-30T02:55:42.937Z,22.37
2019-04-30T02:58:12.782Z,22.07
2019-04-30T03:00:41.256Z,22.00
2019-04-30T03:03:10.271Z,21.60
2019-04-30T03:05:40.297Z,21.63
2019-04-30T03:08:09.600Z,22.23
2019-04-30T03:10:40.173Z,22.17
2019-04-30T03:13:09.795Z,22.00
2019-04-30T03:15:39.526Z,22.13
2019-04-30T03:18:16.475Z,22.37
2019-04-30T03:20:46.510Z,23.60
2019-04-30T03:23:14.916Z,22.77
2019-04-30T03:25:43.303Z,22.97
2019-04-30T03:28:11.699Z,22.53
2019-04-30T03:30:41.916Z,21.33
2019-04-30T03:33:12.675Z,21.93
2019-04-30T03:35:46.644Z,22.00
2019-04-30T03:38:10.455Z,23.03
2019-04-30T03:40:40.471Z,23.40
2019-04-30T03:43:10.338Z,22.90
2019-04-30T03:45:40.210Z,24.37
2019-04-30T03:48:10.152Z,22.03
2019-04-30T03:50:50.200Z,24.47
2019-04-30T03:53:10.453Z,23.70
2019-04-30T03:55:40.158Z,22.37
2019-04-30T03:58:09.454Z,23.07
2019-04-30T04:00:46.731Z,23.27
2019-04-30T04:03:16.736Z,24.30
2019-04-30T04:05:49.771Z,24.27
2019-04-30T04:08:29.390Z,24.03
2019-04-30T04:11:00.536Z,25.63
2019-04-30T04:13:30.128Z,24.97
2019-04-30T04:15:59.913Z,24.67
2019-04-30T04:18:30.180Z,26.03
2019-04-30T04:21:08.905Z,26.03
2019-04-30T04:23:32.828Z,25.33
2019-04-30T04:25:59.682Z,25.50
2019-04-30T04:28:29.961Z,25.07
2019-04-30T04:31:00.138Z,25.00
2019-04-30T04:33:29.662Z,26.27
2019-04-30T04:35:59.778Z,26.10
2019-04-30T04:38:30.340Z,25.93
2019-04-30T04:41:02.661Z,26.50
2019-04-30T04:43:30.041Z,27.03
2019-04-30T04:45:59.420Z,24.93
2019-04-30T04:48:29.793Z,25.47
2019-04-30T04:51:00.040Z,26.13
2019-04-30T04:53:30.475Z,27.47
2019-04-30T04:55:59.933Z,26.00
2019-04-30T04:58:30.327Z,26.97
2019-04-30T05:00:59.291Z,25.67
2019-04-30T05:03:30.778Z,26.13
2019-04-30T05:06:01.902Z,26.73
2019-04-30T05:08:29.301Z,26.30
2019-04-30T05:10:59.351Z,26.97
2019-04-30T05:13:29.072Z,26.70
2019-04-30T05:15:59.395Z,25.23
2019-04-30T05:18:29.097Z,26.03
2019-04-30T05:20:59.016Z,27.60
2019-04-30T05:23:29.831Z,26.80
2019-04-30T05:25:58.949Z,26.17
2019-04-30T05:28:29.927Z,25.90
2019-04-30T05:30:59.387Z,25.33
2019-04-30T05:33:28.603Z,25.50
2019-04-30T05:35:59.244Z,25.07
2019-04-30T05:38:28.683Z,25.03
2019-04-30T05:40:59.444Z,24.73
2019-04-30T05:43:28.960Z,25.67
2019-04-30T05:45:58.677Z,24.13
2019-04-30T05:48:28.582Z,25.33
2019-04-30T05:50:59.102Z,25.53
2019-04-30T05:53:28.682Z,25.87
2019-04-30T05:55:59.267Z,24.57
2019-04-30T05:58:29.774Z,25.63
2019-04-30T06:00:59.720Z,25.27
2019-04-30T06:03:32.939Z,26.70
2019-04-30T06:05:58.937Z,24.70
2019-04-30T06:08:29.314Z,25.20
2019-04-30T06:10:59.832Z,25.27
2019-04-30T06:13:32.017Z,25.83
2019-04-30T06:16:01.760Z,24.50
2019-04-30T06:18:30.233Z,26.13
2019-04-30T06:20:59.880Z,24.83
2019-04-30T06:23:29.391Z,25.33
2019-04-30T06:26:08.697Z,26.13
2019-04-30T06:28:30.893Z,25.70
2019-04-30T06:30:59.355Z,24.90
2019-04-30T06:33:29.103Z,24.03
2019-04-30T06:36:00.575Z,24.40
2019-04-30T06:38:29.165Z,24.40
2019-04-30T06:40:58.882Z,22.53
2019-04-30T06:43:28.764Z,23.37
2019-04-30T06:45:58.944Z,21.63
2019-04-30T06:48:30.570Z,22.17
2019-04-30T06:50:59.341Z,20.90
2019-04-30T06:53:29.231Z,20.43
2019-04-30T06:55:58.988Z,20.07
2019-04-30T06:58:29.155Z,20.47
2019-04-30T07:00:59.551Z,20.23
2019-04-30T07:03:29.074Z,19.80
2019-04-30T07:05:58.589Z,19.97
2019-04-30T07:08:54.812Z,19.60
2019-04-30T07:11:29.281Z,18.50
2019-04-30T07:14:00.045Z,18.57
2019-04-30T07:16:29.863Z,17.93
2019-04-30T07:18:58.642Z,18.43
2019-04-30T07:21:31.187Z,17.53
2019-04-30T07:23:59.561Z,19.20
2019-04-30T07:26:28.953Z,17.17
2019-04-30T07:29:01.839Z,19.47
2019-04-30T07:31:29.568Z,17.87
2019-04-30T07:33:59.455Z,18.50
2019-04-30T07:36:43.397Z,18.97
2019-04-30T07:38:59.963Z,18.33
2019-04-30T07:41:30.915Z,17.90
2019-04-30T07:43:59.317Z,18.73
2019-04-30T07:46:30.033Z,20.53
2019-04-30T07:49:00.018Z,19.63
2019-04-30T07:51:32.130Z,19.70
2019-04-30T07:53:59.116Z,20.93
2019-04-30T07:56:32.461Z,20.30
2019-04-30T07:59:00.768Z,19.93
2019-04-30T08:01:29.489Z,21.77
2019-04-30T08:04:02.869Z,20.77
2019-04-30T08:06:31.766Z,19.20
2019-04-30T08:09:01.471Z,19.00
2019-04-30T08:11:34.487Z,20.33
2019-04-30T08:14:01.299Z,19.50
2019-04-30T08:16:30.330Z,19.07
2019-04-30T08:18:59.159Z,18.93
2019-04-30T08:21:28.757Z,20.60
2019-04-30T08:23:59.344Z,19.27
2019-04-30T08:26:28.666Z,18.73
2019-04-30T08:28:59.798Z,18.70
2019-04-30T08:31:29.263Z,18.90
2019-04-30T08:33:59.157Z,19.67
2019-04-30T08:36:29.786Z,19.40
2019-04-30T08:38:59.727Z,19.40
2019-04-30T08:41:29.294Z,19.40
2019-04-30T08:43:59.816Z,19.07
2019-04-30T08:46:28.763Z,19.77
2019-04-30T08:48:58.737Z,20.03
2019-04-30T08:51:30.504Z,21.87
2019-04-30T08:53:58.680Z,20.97
2019-04-30T08:56:29.245Z,21.40
2019-04-30T08:58:59.261Z,20.73
2019-04-30T09:01:29.432Z,20.50
2019-04-30T09:03:59.699Z,20.23
2019-04-30T09:06:30.287Z,22.67
2019-04-30T09:09:00.436Z,21.70
2019-04-30T09:11:38.342Z,22.30
2019-04-30T09:13:58.948Z,23.70
2019-04-30T09:16:29.466Z,24.20
2019-04-30T09:18:59.505Z,25.57
2019-04-30T09:21:29.941Z,27.13
2019-04-30T09:23:59.404Z,27.53
2019-04-30T09:26:29.069Z,27.37
2019-04-30T09:28:59.288Z,26.67
2019-04-30T09:31:29.578Z,27.03
2019-04-30T09:34:00.833Z,27.93
2019-04-30T09:36:29.269Z,27.30
2019-04-30T09:38:58.808Z,27.23
2019-04-30T09:41:28.875Z,28.30
2019-04-30T09:43:59.699Z,27.77
2019-04-30T09:46:29.989Z,31.03
2019-04-30T09:48:59.762Z,26.33
2019-04-30T09:51:30.435Z,26.63
2019-04-30T09:54:02.105Z,27.63
2019-04-30T09:56:29.446Z,28.30
2019-04-30T09:58:59.248Z,29.73
2019-04-30T10:01:28.333Z,27.73
2019-04-30T10:03:56.942Z,27.70
2019-04-30T10:06:36.995Z,28.60
2019-04-30T10:08:56.395Z,28.87
2019-04-30T10:11:26.505Z,28.07
2019-04-30T10:13:54.912Z,26.37
2019-04-30T10:16:29.612Z,26.95
2019-04-30T10:18:59.234Z,25.97
2019-04-30T10:21:29.000Z,27.95
2019-04-30T10:24:10.433Z,29.05
2019-04-30T10:26:28.263Z,28.52
2019-04-30T10:28:58.261Z,27.25
2019-04-30T10:31:26.678Z,25.23
2019-04-30T10:33:55.069Z,26.40
2019-04-30T10:36:23.538Z,26.07
2019-04-30T10:38:51.955Z,25.82
2019-04-30T10:41:20.348Z,25.92
2019-04-30T10:43:49.374Z,22.82
2019-04-30T10:46:18.268Z,22.45
2019-04-30T10:48:46.664Z,22.77
2019-04-30T10:51:15.153Z,23.45
2019-04-30T10:53:43.545Z,23.83
2019-04-30T10:56:12.293Z,23.50
2019-04-30T10:58:40.762Z,22.45
2019-04-30T11:01:09.673Z,21.90
2019-04-30T11:03:39.150Z,23.75
2019-04-30T11:06:08.646Z,22.13
2019-04-30T11:08:37.700Z,22.55
2019-04-30T11:11:06.871Z,22.80
2019-04-30T11:13:35.363Z,22.27
2019-04-30T11:16:12.678Z,22.05
2019-04-30T11:18:34.129Z,21.45
2019-04-30T11:21:03.398Z,22.90
2019-04-30T11:23:32.664Z,22.05
2019-04-30T11:26:01.931Z,21.97
2019-04-30T11:28:31.537Z,22.07
2019-04-30T11:31:18.652Z,21.97
2019-04-30T11:33:48.113Z,21.17
2019-04-30T11:36:19.226Z,21.35
2019-04-30T11:38:48.758Z,22.13
2019-04-30T11:41:29.815Z,20.40
2019-04-30T11:43:49.538Z,21.07
2019-04-30T11:46:28.560Z,20.82
2019-04-30T11:48:58.562Z,20.70
2019-04-30T11:51:27.053Z,21.37
2019-04-30T11:53:56.598Z,22.10
2019-04-30T11:56:25.057Z,21.42
2019-04-30T11:58:53.498Z,20.55
2019-04-30T12:01:26.433Z,19.67
2019-04-30T12:03:54.842Z,20.20
2019-04-30T12:06:23.317Z,20.75
2019-04-30T12:09:02.652Z,19.57
2019-04-30T12:11:35.664Z,19.98
2019-04-30T12:14:05.198Z,19.87
2019-04-30T12:16:34.570Z,20.57
2019-04-30T12:19:02.958Z,21.75
2019-04-30T12:21:31.405Z,19.82
2019-04-30T12:23:59.831Z,20.45
2019-04-30T12:26:28.900Z,19.87
2019-04-30T12:28:57.405Z,19.25
2019-04-30T12:31:25.906Z,19.32
2019-04-30T12:33:54.305Z,18.73
2019-04-30T12:36:22.925Z,18.50
2019-04-30T12:38:51.415Z,17.92
2019-04-30T12:41:19.812Z,18.87
2019-04-30T12:43:48.212Z,19.32
2019-04-30T12:46:18.989Z,20.37
2019-04-30T12:48:51.170Z,18.05
2019-04-30T12:51:44.800Z,18.15
2019-04-30T12:54:05.633Z,18.95
2019-04-30T12:56:35.670Z,18.57
2019-04-30T12:59:04.132Z,18.30
2019-04-30T13:01:34.188Z,19.05
2019-04-30T13:04:02.744Z,19.62
2019-04-30T13:06:31.576Z,21.42
2019-04-30T13:09:01.395Z,19.35
2019-04-30T13:11:31.690Z,19.20
2019-04-30T13:14:01.352Z,19.80
2019-04-30T13:16:30.737Z,18.23
2019-04-30T13:18:59.456Z,17.60
2019-04-30T13:21:28.580Z,18.27
2019-04-30T13:23:57.519Z,19.10
2019-04-30T13:26:25.925Z,19.20
2019-04-30T13:28:58.928Z,20.85
2019-04-30T13:31:29.463Z,19.85
2019-04-30T13:34:15.476Z,19.48
2019-04-30T13:36:43.861Z,19.77
2019-04-30T13:39:22.697Z,21.02
2019-04-30T13:41:52.733Z,21.05
2019-04-30T13:44:22.765Z,19.32
2019-04-30T13:46:51.180Z,21.25
2019-04-30T13:49:20.038Z,20.20
2019-04-30T13:51:48.442Z,21.42
2019-04-30T13:54:16.836Z,20.02
2019-04-30T13:56:45.225Z,20.17
2019-04-30T13:59:13.624Z,17.32
2019-04-30T14:01:42.113Z,16.20
2019-04-30T14:04:15.261Z,19.57
2019-04-30T14:06:51.378Z,19.95
2019-04-30T14:09:24.377Z,21.80
2019-04-30T14:11:52.776Z,21.30
2019-04-30T14:14:21.243Z,21.15
2019-04-30T14:16:49.740Z,20.68
2019-04-30T14:19:19.555Z,19.55
2019-04-30T14:21:49.419Z,19.32
2019-04-30T14:24:19.280Z,19.62
2019-04-30T14:26:49.100Z,19.85
2019-04-30T14:29:17.999Z,17.45
2019-04-30T14:31:46.480Z,19.00
2019-04-30T14:34:14.874Z,20.10
2019-04-30T14:36:43.264Z,18.73
2019-04-30T14:39:16.387Z,19.98
2019-04-30T14:41:42.756Z,20.17
2019-04-30T14:44:14.494Z,20.30
2019-04-30T14:47:04.997Z,19.42
2019-04-30T14:49:56.792Z,19.52
2019-04-30T14:52:15.084Z,18.75
2019-04-30T14:55:03.364Z,17.60
2019-04-30T14:57:42.576Z,19.37
2019-04-30T15:00:31.834Z,19.70
2019-04-30T15:03:03.996Z,20.75
2019-04-30T15:05:38.960Z,18.77
2019-04-30T15:08:02.605Z,17.65
2019-04-30T15:10:30.992Z,17.95
2019-04-30T15:13:00.232Z,18.25
2019-04-30T15:15:29.527Z,17.85
2019-04-30T15:17:59.289Z,19.80
2019-04-30T15:20:29.661Z,18.80
2019-04-30T15:23:19.177Z,18.67
2019-04-30T15:25:48.561Z,17.82
2019-04-30T15:28:16.994Z,18.12
2019-04-30T15:30:45.396Z,18.82
2019-04-30T15:33:18.465Z,18.75
2019-04-30T15:35:48.179Z,18.25
2019-04-30T15:38:17.008Z,18.17
2019-04-30T15:40:45.409Z,19.48
2019-04-30T15:43:13.838Z,18.48
2019-04-30T15:45:42.228Z,17.23
2019-04-30T15:48:10.632Z,18.80
2019-04-30T15:50:39.290Z,18.20
2019-04-30T15:53:09.465Z,18.98
2019-04-30T15:55:38.044Z,17.55
2019-04-30T15:58:10.822Z,25.62
2019-04-30T16:00:39.450Z,24.50
2019-04-30T16:03:09.939Z,26.62
2019-04-30T16:05:42.732Z,23.52
2019-04-30T16:08:12.761Z,27.07
2019-04-30T16:10:51.996Z,29.10
2019-04-30T16:13:30.351Z,28.32
2019-04-30T16:15:59.179Z,30.32
2019-04-30T16:18:30.390Z,30.97
2019-04-30T16:20:59.520Z,31.73
2019-04-30T16:23:27.936Z,29.37
2019-04-30T16:25:56.409Z,30.93
2019-04-30T16:28:24.802Z,31.73
2019-04-30T16:30:53.234Z,30.93
2019-04-30T16:33:21.616Z,30.93
2019-04-30T16:35:51.118Z,30.97
2019-04-30T16:38:21.005Z,29.53
2019-04-30T16:40:49.986Z,29.70
2019-04-30T16:43:20.143Z,30.70
2019-04-30T16:45:49.388Z,31.17
2019-04-30T16:48:19.314Z,29.53
2019-04-30T16:50:51.087Z,30.67
2019-04-30T16:53:18.657Z,29.87
2019-04-30T16:55:50.010Z,29.20
2019-04-30T16:58:19.602Z,29.87
2019-04-30T17:00:49.236Z,29.37
2019-04-30T17:03:22.104Z,30.03
2019-04-30T17:05:52.135Z,30.00
2019-04-30T17:08:22.174Z,28.60
2019-04-30T17:10:58.346Z,29.80
2019-04-30T17:13:31.072Z,28.50
2019-04-30T17:16:11.299Z,29.50
2019-04-30T17:18:41.855Z,29.43
2019-04-30T17:21:10.144Z,28.00
2019-04-30T17:23:38.546Z,28.67
2019-04-30T17:26:06.997Z,26.73
2019-04-30T17:28:35.642Z,28.90
2019-04-30T17:31:04.037Z,25.70
2019-04-30T17:33:32.441Z,26.93
2019-04-30T17:36:00.831Z,27.50
2019-04-30T17:38:29.240Z,29.07
2019-04-30T17:40:57.633Z,28.10
2019-04-30T17:43:26.025Z,26.70
2019-04-30T17:45:54.447Z,27.97
2019-04-30T17:48:22.866Z,28.43
2019-04-30T17:50:51.260Z,26.77
2019-04-30T17:53:21.338Z,26.67
2019-04-30T17:55:49.736Z,27.33
2019-04-30T17:58:20.554Z,27.40
2019-04-30T18:00:49.960Z,26.33
2019-04-30T18:03:18.968Z,27.47
2019-04-30T18:05:49.184Z,28.07
2019-04-30T18:08:18.357Z,25.40
2019-04-30T18:10:46.760Z,25.50
2019-04-30T18:13:15.168Z,26.10
2019-04-30T18:15:43.763Z,26.80
2019-04-30T18:18:25.836Z,25.97
2019-04-30T18:21:04.775Z,26.07
2019-04-30T18:23:37.993Z,25.83
2019-04-30T18:26:08.024Z,25.90
2019-04-30T18:28:36.439Z,26.80
2019-04-30T18:31:06.429Z,25.80
2019-04-30T18:33:34.824Z,25.80
2019-04-30T18:36:03.295Z,26.03
2019-04-30T18:38:31.777Z,25.37
2019-04-30T18:41:01.040Z,25.57
2019-04-30T18:43:29.446Z,25.30
2019-04-30T18:45:57.840Z,26.17
2019-04-30T18:48:26.244Z,25.53
2019-04-30T18:50:54.637Z,25.40
2019-04-30T18:53:24.669Z,25.90
2019-04-30T18:55:53.077Z,26.13
2019-04-30T18:58:21.468Z,27.33
2019-04-30T19:00:50.012Z,26.87
2019-04-30T19:03:21.558Z,26.07
2019-04-30T19:05:50.233Z,26.60
2019-04-30T19:08:29.494Z,28.40
2019-04-30T19:11:00.491Z,28.40
2019-04-30T19:13:30.685Z,28.80
2019-04-30T19:16:18.759Z,27.50
2019-04-30T19:18:47.717Z,29.77
2019-04-30T19:21:16.129Z,29.83
2019-04-30T19:23:44.541Z,29.47
2019-04-30T19:26:12.940Z,27.63
2019-04-30T19:28:41.337Z,28.83
2019-04-30T19:31:11.972Z,29.40
2019-04-30T19:33:40.389Z,30.03
2019-04-30T19:36:09.799Z,29.20
2019-04-30T19:38:38.880Z,31.70
2019-04-30T19:41:10.641Z,30.87
2019-04-30T19:43:39.077Z,29.10
2019-04-30T19:46:09.206Z,30.50
2019-04-30T19:48:39.736Z,31.63
2019-04-30T19:51:08.877Z,31.47
2019-04-30T19:53:39.521Z,32.20
2019-04-30T19:56:07.936Z,32.17
2019-04-30T19:58:48.740Z,33.33
2019-04-30T20:01:06.469Z,31.60
2019-04-30T20:03:34.853Z,33.90
2019-04-30T20:06:03.269Z,33.97
2019-04-30T20:08:31.658Z,34.53
2019-04-30T20:11:00.044Z,33.93
2019-04-30T20:13:36.731Z,34.27
2019-04-30T20:15:59.401Z,37.67
2019-04-30T20:18:29.233Z,35.13
2019-04-30T20:21:01.180Z,35.37
2019-04-30T20:23:29.724Z,37.87
2019-04-30T20:25:58.109Z,35.53
2019-04-30T20:28:38.426Z,35.83
2019-04-30T20:30:56.621Z,37.17
2019-04-30T20:33:25.008Z,36.40
2019-04-30T20:35:53.405Z,37.77
2019-04-30T20:38:25.868Z,38.23
2019-04-30T20:41:00.159Z,38.20
2019-04-30T20:43:24.402Z,38.30
2019-04-30T20:45:52.789Z,38.87
2019-04-30T20:48:21.189Z,38.10
2019-04-30T20:50:49.577Z,40.03
2019-04-30T20:53:19.779Z,38.60
2019-04-30T20:55:49.536Z,38.83
2019-04-30T20:58:18.278Z,39.30
2019-04-30T21:00:46.684Z,40.97
2019-04-30T21:03:15.069Z,40.60
2019-04-30T21:05:43.459Z,40.30
2019-04-30T21:08:11.874Z,42.37
2019-04-30T21:10:40.243Z,42.10
2019-04-30T21:13:10.964Z,42.50
2019-04-30T21:15:39.544Z,43.40
2019-04-30T21:18:09.508Z,43.77
2019-04-30T21:20:38.870Z,45.10
2019-04-30T21:23:09.305Z,44.77
2019-04-30T21:25:38.717Z,45.20
2019-04-30T21:28:09.597Z,51.90
2019-04-30T21:30:37.662Z,46.37
2019-04-30T21:33:16.634Z,46.90
2019-04-30T21:35:48.562Z,49.30
2019-04-30T21:38:19.375Z,47.27
2019-04-30T21:40:49.231Z,48.00
2019-04-30T21:43:17.772Z,46.53
2019-04-30T21:45:46.174Z,43.97
2019-04-30T21:48:14.566Z,46.20
2019-04-30T21:50:42.961Z,43.83
2019-04-30T21:53:11.345Z,44.33
2019-04-30T21:55:40.001Z,45.63
2019-04-30T21:58:09.540Z,45.27
2019-04-30T22:00:42.669Z,44.27
2019-04-30T22:03:11.149Z,44.77
2019-04-30T22:05:39.663Z,45.20
2019-04-30T22:08:09.090Z,44.93
2019-04-30T22:10:38.150Z,44.77
2019-04-30T22:13:08.757Z,44.00
2019-04-30T22:15:36.719Z,45.43
2019-04-30T22:18:05.136Z,44.60
2019-04-30T22:20:33.533Z,43.50
2019-04-30T22:23:02.964Z,45.63
2019-04-30T22:25:31.446Z,45.67
2019-04-30T22:27:59.892Z,47.90
2019-04-30T22:30:28.300Z,45.27
2019-04-30T22:32:59.370Z,49.83
2019-04-30T22:35:28.484Z,47.00
2019-04-30T22:38:01.452Z,48.33
2019-04-30T22:40:31.579Z,47.33
2019-04-30T22:42:59.949Z,45.63
2019-04-30T22:45:30.006Z,47.67
2019-04-30T22:47:58.838Z,45.93
2019-04-30T22:50:27.452Z,44.93
2019-04-30T22:52:55.847Z,46.37
2019-04-30T22:55:24.236Z,47.77
2019-04-30T22:57:52.636Z,49.30
2019-04-30T23:00:22.687Z,49.97
2019-04-30T23:02:58.681Z,49.93
2019-04-30T23:05:27.076Z,49.27
2019-04-30T23:07:55.459Z,48.90
2019-04-30T23:10:24.668Z,48.90
2019-04-30T23:12:53.167Z,51.60
2019-04-30T23:15:21.686Z,48.97
2019-04-30T23:17:50.085Z,50.00
2019-04-30T23:20:18.556Z,50.43
2019-04-30T23:22:46.944Z,49.87
2019-04-30T23:25:15.397Z,47.60
2019-04-30T23:27:43.797Z,47.50
2019-04-30T23:30:13.018Z,46.37
2019-04-30T23:32:41.412Z,47.27
2019-04-30T23:35:09.937Z,46.90
2019-04-30T23:37:38.342Z,47.60
2019-04-30T23:40:24.155Z,46.13
2019-04-30T23:42:53.962Z,46.27
2019-04-30T23:45:24.082Z,46.07
2019-04-30T23:47:52.540Z,46.77
2019-04-30T23:50:21.009Z,47.73
2019-04-30T23:52:49.401Z,51.03
2019-04-30T23:55:17.876Z,51.40
2019-04-30T23:57:46.264Z,51.60
